Hola

Solo disponible en BuenasTareas
  • Páginas : 87 (21701 palabras )
  • Descarga(s) : 0
  • Publicado : 25 de octubre de 2010
Leer documento completo
Vista previa del texto
“ NOTAM´S

Y TAF´S

PLAN 12678 * * JEPPESEN WEATHER 10/03/10, 12:13:55 ---------------------------------**--------------------------------*************************** * NON-GRAPHIC INFORMATION * *************************** TAF MMAA 031054Z 0312/0418 02005KT P6SM SCT020 TX30/0319Z TN24/0312Z FM031600 24010KT P6SM SCT030 FM040200 02005KT P6SM SCT015 FM041600 23010KT P6SM SCT020= MMAA 031145Z35005KT 8SM FEW120 25/22 A2986 RMK SLP118 54000 908 8/030= MMAA 031045Z 00000KT 8SM FEW120 24/22 A2986 RMK 8/030= METAR MMAA 030945Z 00000KT 8SM FEW020 SCT120 25/22 A2986 RMK 8/130= ** NOTAM filter NONE has been applied to the NOTAM request ** MMAA APT 2010080A8C1V01 V1044/10 10 12AUG1400/10 15NOV2359 ( MILITARY NOTAM ) [DOD PROCEDURAL NOTAM] STANDARD INSTRUMENT DEPARTURE (SID) RWY 24, 28 DEPARTURE.ACAPULCO TWO DELTA (ACA2D) TRNS NOT AUTH. MMAA APT 2010070A7C5V01 V0821/10 10 13JUL1900/10 15OCT2359 ( MILITARY NOTAM ) [DOD PROCEDURAL NOTAM] INSTRUMENT APPROACH PROCEDURE NOT AUTHORIZED VOR RWY 28. MMAA APT 2010070A7C4V01 V0820/10 10 13JUL1900/10 15OCT2359 ( MILITARY NOTAM ) [DOD PROCEDURAL NOTAM] INSTRUMENT APPROACH PROCEDURE NOT AUTHORIZED VOR-A. MMAA APT 2010070A7C3V01 V0819/10 1013JUL1900/10 15OCT2359 ( MILITARY NOTAM ) [DOD PROCEDURAL NOTAM] INSTRUMENT APPROACH PROCEDURE NOT AUTHORIZED VOR/DME 2 RWY 28. MMAA APT 2010070A7BEV01 V0816/10 10 13JUL1900/10 15OCT2359 ( MILITARY NOTAM ) [DOD PROCEDURAL NOTAM] INSTRUMENT APPROACH PROCEDURE NOT AUTHORIZED ILS/DME 1 RWY 10. MMAA APT 2010070A7BCV01 V0818/10 10 13JUL1900/10 15OCT2359 ( MILITARY NOTAM ) [DOD PROCEDURAL NOTAM] INSTRUMENTAPPROACH PROCEDURE NOT AUTHORIZED

VOR/DME 1 RWY 28. MMAA APT 2010070A7BBV01 V0817/10 10 13JUL1900/10 15OCT2359 ( MILITARY NOTAM ) [DOD PROCEDURAL NOTAM] INSTRUMENT APPROACH PROCEDURE NOT AUTHORIZED ILS/DME 1 RWY 28. MMAA APT 2010070A7B6V01 V0815/10 10 13JUL1900/10 15OCT2359 ( MILITARY NOTAM ) [DOD PROCEDURAL NOTAM] STANDARD INSTRUMENT DEPARTURE (SID) NOT AUTHORIZED RWY 06, 10 DEPARTURE. MMAA APT2010070A7B5V01 V0814/10 10 13JUL1900/10 15OCT2359 ( MILITARY NOTAM ) [DOD PROCEDURAL NOTAM] STANDARD INSTRUMENT DEPARTURE (SID) NOT AUTHORIZED RWY 24, 28 DEPARTURE. MMAA APT 20100108F6BV01 A0091/10 10 08JAN2025/ PERM MNM DIRECT RWY 10 CAT A, B, C, AND D 1 NM (1600 M) PUBLISHED IN CHARTS AD-MMAA-ILS-1/ILS-2 (SUP 058/09 DATE DIC 17 2009 TAF MMAS 030508Z 0306/0412 00000KT P6SM SKC BECMG 0317/0318 04008KTFM040300 00000KT P6SM SKC= MMAS 031146Z 35005KT 10SM SKC 09/06 A3026 RMK SLP127= MMAS 031106Z RTD 02003KT 10SM SKC 08/05 A3026 RMK AC N RTS= MMAS 030440Z 00000KT 10SM SKC 16/05 A3023= ** NOTAM filter NONE has been applied to the NOTAM request ** MMAS APT 2010080DF4EV01 A4495/10 10 16AUG2009/10 12OCT0030 ON TWY B WIP, MEN AND EQUIPMENT WILL BE REMOVED FOR ACFT OPS MMAS APT 2010080DF3FV01 A4494/1010 16AUG2005/10 12OCT0030 ON RWY 17/35 WIP, MEN AND EQUIPMENT WILL BE REMOVED FOR ACFT OPS MMAS APT 2010061D632V04 Z1718/09 RWY 04/22 CLOSED. MMAS APT 201006155AAV01 A3135/10 RWY 04/22 CLOSED. WIE /10 22JUN2359 EST

10 22JUN1631/10 31DEC2359

TAF MMCE 030531Z 0306/0412 35008KT 5SM HZ SCT020 SCT200 TEMPO 0310/0314 3SM BR HZ BKN010 FM031700 35010KT P6SM SCT015 BECMG 0402/0403 34006KT TEMPO0408/0412 5SM -RA BR BKN010= MMCE 031149Z 24003KT 5SM SCT025 SCT200 26/23 A2994 RMK SLP139 5//// 919 8= MMCE 031045Z 36006KT 5SM SCT025 SCT200 27/19 A2992 RMK 8/103= METAR MMCE 030048Z 34008KT 5SM SCT025 SCT200 28/22 A2988 RMK 8/103=

** NOTAM filter NONE has been applied to the NOTAM request ** NO NO DATA AVAILABLE FOR MMCE TAF MMCL 030511Z 0306/0412 00000KT P6SM SKC FM031700 18008KT P6SM SCT020FM040200 20005KT P6SM SCT020= METAR MMCL 031211Z RTD 00000KT 10SM SKC 27/23 A2987 RMK SLP100 5//// 964 ISOL CU RTS= METAR MMCL 030340Z 00000KT 10SM SKC 29/25 A2985 RMK ISOL CU HZY= METAR MMCL 030240Z 00000KT 10SM SKC 30/26 A2983 RMK SLP100 52013 967 ISOL CU HZY= ** NOTAM filter NONE has been applied to the NOTAM request ** MMCL APT 201009113A4V01 A5410/10 10 21SEP0500/10 11OCT2200 ON MOVEMENT AREA...
tracking img